Dover Plains, New York
Current Conditions -  °F | °C
As of 4:53 PM on Friday 28 Nov 2014 (Local Time) from KPOU Reporting Station
Clear Clear  
Wind Chill: 20°   Ceiling: Unl
Heat Index: 29°   Visibility: 10mi
Dew Point: 12°   Wind: 9mph
Humidity: 49%   Direction: 280°W
Pressure: 30.2"   Gusts: NA
Location:  41.74°N, 73.58°W
Report Text: KPOU 282153Z 28008KT 10SM CLR M02/M11 A3020 RMK AO2 SLP227 T10171111
Loading
Personal Weather Stations






























Interactive Weather Map New forecast layout! Learn more

10-Day Weather Forecast

Advertisements
Track Severe Weather on mobile